sensor_id;sensor_type;location;lat;lon;timestamp;P1;durP1;ratioP1;P2;durP2;ratioP2
9597;SDS011;4837;50.890;4.724;2022-08-19T13:29:28;6.40;;;4.32;;
9597;SDS011;4837;50.890;4.724;2022-08-19T13:32:29;7.70;;;3.67;;
9597;SDS011;4837;50.890;4.724;2022-08-19T13:35:14;4.30;;;3.60;;
9597;SDS011;4837;50.890;4.724;2022-08-19T13:37:40;4.25;;;3.72;;
9597;SDS011;4837;50.890;4.724;2022-08-19T13:40:12;4.60;;;3.70;;
9597;SDS011;4837;50.890;4.724;2022-08-19T13:42:40;4.05;;;3.70;;
9597;SDS011;4837;50.890;4.724;2022-08-19T13:45:07;5.35;;;3.50;;
9597;SDS011;4837;50.890;4.724;2022-08-19T13:47:34;3.95;;;3.05;;
9597;SDS011;4837;50.890;4.724;2022-08-19T13:50:02;4.72;;;3.30;;
9597;SDS011;4837;50.890;4.724;2022-08-19T13:52:28;3.42;;;2.75;;
9597;SDS011;4837;50.890;4.724;2022-08-19T13:54:54;4.15;;;3.20;;
9597;SDS011;4837;50.890;4.724;2022-08-19T13:57:21;4.07;;;2.78;;
9597;SDS011;4837;50.890;4.724;2022-08-19T13:59:47;2.78;;;2.50;;
9597;SDS011;4837;50.890;4.724;2022-08-19T14:02:13;4.68;;;2.78;;
9597;SDS011;4837;50.890;4.724;2022-08-19T14:04:39;4.07;;;2.40;;
9597;SDS011;4837;50.890;4.724;2022-08-19T14:07:06;4.18;;;2.90;;
9597;SDS011;4837;50.890;4.724;2022-08-19T14:09:32;3.63;;;2.35;;
9597;SDS011;4837;50.890;4.724;2022-08-19T14:11:58;2.47;;;2.22;;
9597;SDS011;4837;50.890;4.724;2022-08-19T14:14:24;3.10;;;1.90;;
9597;SDS011;4837;50.890;4.724;2022-08-19T14:16:50;2.33;;;2.10;;
9597;SDS011;4837;50.890;4.724;2022-08-19T14:19:17;3.08;;;2.05;;
9597;SDS011;4837;50.890;4.724;2022-08-19T14:21:44;3.90;;;1.88;;
9597;SDS011;4837;50.890;4.724;2022-08-19T14:24:10;3.00;;;2.13;;
9597;SDS011;4837;50.890;4.724;2022-08-19T14:26:36;2.38;;;2.08;;
9597;SDS011;4837;50.890;4.724;2022-08-19T14:29:03;2.03;;;1.70;;
9597;SDS011;4837;50.890;4.724;2022-08-19T14:31:29;3.10;;;1.77;;
9597;SDS011;4837;50.890;4.724;2022-08-19T14:33:55;4.82;;;3.58;;
9597;SDS011;4837;50.890;4.724;2022-08-19T14:36:21;2.97;;;2.30;;
9597;SDS011;4837;50.890;4.724;2022-08-19T14:38:47;4.80;;;1.98;;
9597;SDS011;4837;50.890;4.724;2022-08-19T14:41:19;2.72;;;2.08;;
9597;SDS011;4837;50.890;4.724;2022-08-19T14:43:46;2.67;;;2.47;;
9597;SDS011;4837;50.890;4.724;2022-08-19T14:46:17;4.25;;;1.60;;
9597;SDS011;4837;50.890;4.724;2022-08-19T14:48:45;3.03;;;2.20;;
9597;SDS011;4837;50.890;4.724;2022-08-19T14:51:11;2.30;;;2.10;;
9597;SDS011;4837;50.890;4.724;2022-08-19T14:53:37;3.78;;;2.78;;
9597;SDS011;4837;50.890;4.724;2022-08-19T14:56:10;3.03;;;2.03;;
9597;SDS011;4837;50.890;4.724;2022-08-19T14:58:37;2.75;;;1.77;;
9597;SDS011;4837;50.890;4.724;2022-08-19T15:01:05;6.45;;;5.60;;
9597;SDS011;4837;50.890;4.724;2022-08-19T15:03:31;7.28;;;5.07;;
9597;SDS011;4837;50.890;4.724;2022-08-19T15:05:57;2.50;;;1.70;;
9597;SDS011;4837;50.890;4.724;2022-08-19T15:08:24;5.63;;;3.30;;
9597;SDS011;4837;50.890;4.724;2022-08-19T15:10:51;4.43;;;1.80;;
9597;SDS011;4837;50.890;4.724;2022-08-19T15:13:17;4.03;;;2.30;;
9597;SDS011;4837;50.890;4.724;2022-08-19T15:15:43;4.43;;;2.30;;
9597;SDS011;4837;50.890;4.724;2022-08-19T15:18:10;9.68;;;3.78;;
9597;SDS011;4837;50.890;4.724;2022-08-19T15:20:37;4.32;;;2.58;;
9597;SDS011;4837;50.890;4.724;2022-08-19T15:23:03;3.67;;;3.05;;
9597;SDS011;4837;50.890;4.724;2022-08-19T15:25:30;7.85;;;3.28;;
9597;SDS011;4837;50.890;4.724;2022-08-19T15:27:57;5.03;;;2.70;;
9597;SDS011;4837;50.890;4.724;2022-08-19T15:30:31;4.63;;;3.55;;
9597;SDS011;4837;50.890;4.724;2022-08-19T15:32:58;4.47;;;3.30;;
9597;SDS011;4837;50.890;4.724;2022-08-19T15:35:25;6.25;;;2.47;;
9597;SDS011;4837;50.890;4.724;2022-08-19T15:37:51;4.32;;;2.22;;
9597;SDS011;4837;50.890;4.724;2022-08-19T15:40:18;3.08;;;2.65;;
9597;SDS011;4837;50.890;4.724;2022-08-19T15:42:45;2.50;;;2.28;;
9597;SDS011;4837;50.890;4.724;2022-08-19T15:45:12;2.60;;;2.10;;
9597;SDS011;4837;50.890;4.724;2022-08-19T15:47:39;1.20;;;1.10;;
9597;SDS011;4837;50.890;4.724;2022-08-19T15:50:06;1.35;;;0.90;;
9597;SDS011;4837;50.890;4.724;2022-08-19T15:52:32;1.30;;;1.20;;
9597;SDS011;4837;50.890;4.724;2022-08-19T15:54:58;0.63;;;0.63;;
9597;SDS011;4837;50.890;4.724;2022-08-19T15:57:25;0.82;;;0.50;;
9597;SDS011;4837;50.890;4.724;2022-08-19T15:59:51;1.70;;;0.70;;
9597;SDS011;4837;50.890;4.724;2022-08-19T16:02:36;0.60;;;0.60;;
9597;SDS011;4837;50.890;4.724;2022-08-19T16:05:24;0.63;;;0.60;;
9597;SDS011;4837;50.890;4.724;2022-08-19T16:08:09;1.58;;;0.63;;
9597;SDS011;4837;50.890;4.724;2022-08-19T16:10:35;1.02;;;0.90;;
9597;SDS011;4837;50.890;4.724;2022-08-19T16:13:02;1.27;;;1.17;;
9597;SDS011;4837;50.890;4.724;2022-08-19T16:15:30;1.65;;;0.98;;
9597;SDS011;4837;50.890;4.724;2022-08-19T16:17:57;1.77;;;1.50;;
9597;SDS011;4837;50.890;4.724;2022-08-19T16:20:27;2.25;;;1.35;;
9597;SDS011;4837;50.890;4.724;2022-08-19T16:22:54;2.35;;;1.20;;
9597;SDS011;4837;50.890;4.724;2022-08-19T16:25:22;2.25;;;1.73;;
9597;SDS011;4837;50.890;4.724;2022-08-19T16:27:52;4.57;;;1.42;;
9597;SDS011;4837;50.890;4.724;2022-08-19T16:30:18;3.92;;;1.30;;
9597;SDS011;4837;50.890;4.724;2022-08-19T16:32:44;1.85;;;1.60;;
9597;SDS011;4837;50.890;4.724;2022-08-19T16:35:11;3.70;;;1.90;;
9597;SDS011;4837;50.890;4.724;2022-08-19T16:37:37;3.55;;;1.38;;
9597;SDS011;4837;50.890;4.724;2022-08-19T16:40:03;3.63;;;1.95;;
9597;SDS011;4837;50.890;4.724;2022-08-19T16:42:30;2.80;;;1.70;;
9597;SDS011;4837;50.890;4.724;2022-08-19T16:44:57;1.80;;;1.70;;
9597;SDS011;4837;50.890;4.724;2022-08-19T16:47:23;2.58;;;2.03;;
9597;SDS011;4837;50.890;4.724;2022-08-19T16:49:49;3.28;;;1.88;;
9597;SDS011;4837;50.890;4.724;2022-08-19T16:52:16;3.63;;;1.70;;
9597;SDS011;4837;50.890;4.724;2022-08-19T16:54:43;1.88;;;1.30;;
9597;SDS011;4837;50.890;4.724;2022-08-19T16:57:09;2.40;;;1.50;;
9597;SDS011;4837;50.890;4.724;2022-08-19T16:59:35;2.63;;;2.30;;
9597;SDS011;4837;50.890;4.724;2022-08-19T17:02:03;2.20;;;1.70;;
9597;SDS011;4837;50.890;4.724;2022-08-19T17:04:29;3.28;;;2.28;;
9597;SDS011;4837;50.890;4.724;2022-08-19T17:06:55;3.75;;;1.90;;
9597;SDS011;4837;50.890;4.724;2022-08-19T17:09:21;2.22;;;1.95;;
9597;SDS011;4837;50.890;4.724;2022-08-19T17:11:47;2.83;;;2.05;;
9597;SDS011;4837;50.890;4.724;2022-08-19T17:14:13;2.65;;;1.98;;
9597;SDS011;4837;50.890;4.724;2022-08-19T17:16:42;3.42;;;2.40;;
9597;SDS011;4837;50.890;4.724;2022-08-19T17:19:08;4.25;;;2.13;;
9597;SDS011;4837;50.890;4.724;2022-08-19T17:21:35;1.92;;;1.55;;
9597;SDS011;4837;50.890;4.724;2022-08-19T17:24:02;2.08;;;1.73;;
9597;SDS011;4837;50.890;4.724;2022-08-19T17:26:29;2.83;;;1.55;;
9597;SDS011;4837;50.890;4.724;2022-08-19T17:28:56;3.28;;;1.63;;
9597;SDS011;4837;50.890;4.724;2022-08-19T17:31:23;3.15;;;1.60;;
9597;SDS011;4837;50.890;4.724;2022-08-19T17:33:50;3.42;;;1.80;;
9597;SDS011;4837;50.890;4.724;2022-08-19T17:36:17;2.58;;;2.38;;
9597;SDS011;4837;50.890;4.724;2022-08-19T17:38:43;2.75;;;2.10;;
9597;SDS011;4837;50.890;4.724;2022-08-19T17:41:10;3.15;;;1.80;;
9597;SDS011;4837;50.890;4.724;2022-08-19T17:43:36;3.80;;;1.70;;
9597;SDS011;4837;50.890;4.724;2022-08-19T17:46:03;1.80;;;1.50;;
9597;SDS011;4837;50.890;4.724;2022-08-19T17:48:30;2.53;;;1.60;;
9597;SDS011;4837;50.890;4.724;2022-08-19T17:50:56;2.05;;;1.50;;
9597;SDS011;4837;50.890;4.724;2022-08-19T17:53:24;2.35;;;2.10;;
9597;SDS011;4837;50.890;4.724;2022-08-19T17:55:50;3.95;;;2.10;;
9597;SDS011;4837;50.890;4.724;2022-08-19T17:58:16;3.70;;;2.10;;
9597;SDS011;4837;50.890;4.724;2022-08-19T18:00:44;5.68;;;1.90;;
9597;SDS011;4837;50.890;4.724;2022-08-19T18:03:10;2.65;;;1.73;;
9597;SDS011;4837;50.890;4.724;2022-08-19T18:05:40;3.30;;;1.90;;
9597;SDS011;4837;50.890;4.724;2022-08-19T18:08:06;2.70;;;1.98;;
9597;SDS011;4837;50.890;4.724;2022-08-19T18:10:33;3.00;;;2.15;;
9597;SDS011;4837;50.890;4.724;2022-08-19T18:13:00;3.78;;;1.85;;
9597;SDS011;4837;50.890;4.724;2022-08-19T18:15:26;3.85;;;2.35;;
9597;SDS011;4837;50.890;4.724;2022-08-19T18:17:53;4.28;;;2.45;;
9597;SDS011;4837;50.890;4.724;2022-08-19T18:20:20;5.88;;;2.63;;
9597;SDS011;4837;50.890;4.724;2022-08-19T18:22:46;5.28;;;3.25;;
9597;SDS011;4837;50.890;4.724;2022-08-19T18:25:14;5.28;;;3.35;;
9597;SDS011;4837;50.890;4.724;2022-08-19T18:27:46;6.15;;;3.17;;
9597;SDS011;4837;50.890;4.724;2022-08-19T18:30:13;3.47;;;3.15;;
9597;SDS011;4837;50.890;4.724;2022-08-19T18:32:39;7.97;;;3.05;;
9597;SDS011;4837;50.890;4.724;2022-08-19T18:35:09;4.85;;;3.10;;
9597;SDS011;4837;50.890;4.724;2022-08-19T18:37:42;3.65;;;2.90;;
9597;SDS011;4837;50.890;4.724;2022-08-19T18:40:10;2.83;;;2.55;;
9597;SDS011;4837;50.890;4.724;2022-08-19T18:42:55;4.53;;;3.30;;
9597;SDS011;4837;50.890;4.724;2022-08-19T18:45:36;5.32;;;2.65;;
9597;SDS011;4837;50.890;4.724;2022-08-19T18:48:21;3.22;;;2.60;;
9597;SDS011;4837;50.890;4.724;2022-08-19T18:51:06;3.65;;;2.78;;
9597;SDS011;4837;50.890;4.724;2022-08-19T18:53:36;4.85;;;2.63;;
9597;SDS011;4837;50.890;4.724;2022-08-19T18:56:03;4.55;;;2.80;;
9597;SDS011;4837;50.890;4.724;2022-08-19T18:58:30;3.55;;;2.22;;
9597;SDS011;4837;50.890;4.724;2022-08-19T19:01:04;3.15;;;2.28;;
9597;SDS011;4837;50.890;4.724;2022-08-19T19:03:35;4.05;;;2.17;;
9597;SDS011;4837;50.890;4.724;2022-08-19T19:06:04;3.85;;;1.90;;
9597;SDS011;4837;50.890;4.724;2022-08-19T19:08:31;4.47;;;2.42;;
9597;SDS011;4837;50.890;4.724;2022-08-19T19:10:58;3.42;;;2.00;;
9597;SDS011;4837;50.890;4.724;2022-08-19T19:13:29;4.60;;;2.47;;
9597;SDS011;4837;50.890;4.724;2022-08-19T19:15:55;3.42;;;2.22;;
9597;SDS011;4837;50.890;4.724;2022-08-19T19:18:22;2.90;;;2.10;;
9597;SDS011;4837;50.890;4.724;2022-08-19T19:20:49;3.70;;;2.42;;
9597;SDS011;4837;50.890;4.724;2022-08-19T19:23:15;7.68;;;2.25;;
9597;SDS011;4837;50.890;4.724;2022-08-19T19:25:41;2.70;;;2.30;;
9597;SDS011;4837;50.890;4.724;2022-08-19T19:28:08;4.63;;;2.58;;
9597;SDS011;4837;50.890;4.724;2022-08-19T19:30:36;3.17;;;2.25;;
9597;SDS011;4837;50.890;4.724;2022-08-19T19:33:02;4.70;;;2.60;;
9597;SDS011;4837;50.890;4.724;2022-08-19T19:35:28;5.15;;;2.55;;
9597;SDS011;4837;50.890;4.724;2022-08-19T19:37:55;5.40;;;2.70;;
9597;SDS011;4837;50.890;4.724;2022-08-19T19:40:21;3.90;;;2.55;;
9597;SDS011;4837;50.890;4.724;2022-08-19T19:42:48;3.97;;;3.03;;
9597;SDS011;4837;50.890;4.724;2022-08-19T19:45:16;3.13;;;2.65;;
9597;SDS011;4837;50.890;4.724;2022-08-19T19:47:42;3.70;;;2.53;;
9597;SDS011;4837;50.890;4.724;2022-08-19T19:50:09;4.57;;;2.85;;
9597;SDS011;4837;50.890;4.724;2022-08-19T19:52:36;4.18;;;2.45;;
9597;SDS011;4837;50.890;4.724;2022-08-19T19:55:02;4.63;;;2.70;;
9597;SDS011;4837;50.890;4.724;2022-08-19T19:57:28;4.72;;;2.90;;
9597;SDS011;4837;50.890;4.724;2022-08-19T19:59:54;6.68;;;2.90;;
9597;SDS011;4837;50.890;4.724;2022-08-19T20:02:21;5.93;;;3.40;;
9597;SDS011;4837;50.890;4.724;2022-08-19T20:04:49;4.28;;;3.00;;
9597;SDS011;4837;50.890;4.724;2022-08-19T20:07:15;4.72;;;3.70;;
9597;SDS011;4837;50.890;4.724;2022-08-19T20:09:41;5.82;;;3.80;;
9597;SDS011;4837;50.890;4.724;2022-08-19T20:12:07;4.07;;;3.30;;
9597;SDS011;4837;50.890;4.724;2022-08-19T20:14:34;5.40;;;3.90;;
9597;SDS011;4837;50.890;4.724;2022-08-19T20:17:00;5.97;;;3.58;;
9597;SDS011;4837;50.890;4.724;2022-08-19T20:19:31;5.32;;;3.80;;
9597;SDS011;4837;50.890;4.724;2022-08-19T20:21:58;4.35;;;3.38;;
9597;SDS011;4837;50.890;4.724;2022-08-19T20:24:26;5.03;;;3.60;;
9597;SDS011;4837;50.890;4.724;2022-08-19T20:26:55;4.07;;;3.42;;
9597;SDS011;4837;50.890;4.724;2022-08-19T20:29:21;4.85;;;3.65;;
9597;SDS011;4837;50.890;4.724;2022-08-19T20:31:47;6.38;;;3.15;;
9597;SDS011;4837;50.890;4.724;2022-08-19T20:34:14;4.70;;;3.55;;
9597;SDS011;4837;50.890;4.724;2022-08-19T20:36:40;5.07;;;3.53;;
9597;SDS011;4837;50.890;4.724;2022-08-19T20:39:06;4.20;;;3.35;;
9597;SDS011;4837;50.890;4.724;2022-08-19T20:41:33;3.70;;;3.30;;
9597;SDS011;4837;50.890;4.724;2022-08-19T20:43:59;3.97;;;3.15;;
9597;SDS011;4837;50.890;4.724;2022-08-19T20:46:26;4.13;;;3.35;;
9597;SDS011;4837;50.890;4.724;2022-08-19T20:48:54;4.05;;;3.00;;
9597;SDS011;4837;50.890;4.724;2022-08-19T20:51:20;5.40;;;2.92;;
9597;SDS011;4837;50.890;4.724;2022-08-19T20:53:46;2.88;;;2.53;;
9597;SDS011;4837;50.890;4.724;2022-08-19T20:56:12;8.23;;;3.03;;
9597;SDS011;4837;50.890;4.724;2022-08-19T20:58:38;3.40;;;3.10;;
9597;SDS011;4837;50.890;4.724;2022-08-19T21:01:05;4.38;;;2.90;;
9597;SDS011;4837;50.890;4.724;2022-08-19T21:03:34;3.70;;;3.30;;
9597;SDS011;4837;50.890;4.724;2022-08-19T21:06:01;3.72;;;3.00;;
9597;SDS011;4837;50.890;4.724;2022-08-19T21:08:27;4.53;;;3.28;;
9597;SDS011;4837;50.890;4.724;2022-08-19T21:10:54;3.25;;;2.72;;
9597;SDS011;4837;50.890;4.724;2022-08-19T21:13:21;3.92;;;2.80;;
9597;SDS011;4837;50.890;4.724;2022-08-19T21:15:47;4.75;;;2.80;;
9597;SDS011;4837;50.890;4.724;2022-08-19T21:18:14;3.67;;;2.58;;
9597;SDS011;4837;50.890;4.724;2022-08-19T21:20:41;3.90;;;2.90;;
9597;SDS011;4837;50.890;4.724;2022-08-19T21:23:12;5.30;;;2.97;;
9597;SDS011;4837;50.890;4.724;2022-08-19T21:25:38;3.85;;;2.55;;
9597;SDS011;4837;50.890;4.724;2022-08-19T21:28:05;5.05;;;2.72;;
9597;SDS011;4837;50.890;4.724;2022-08-19T21:30:31;3.90;;;3.10;;
9597;SDS011;4837;50.890;4.724;2022-08-19T21:32:59;3.10;;;2.80;;
9597;SDS011;4837;50.890;4.724;2022-08-19T21:35:25;4.00;;;3.08;;
9597;SDS011;4837;50.890;4.724;2022-08-19T21:37:51;4.05;;;2.67;;
9597;SDS011;4837;50.890;4.724;2022-08-19T21:40:17;4.57;;;2.80;;
9597;SDS011;4837;50.890;4.724;2022-08-19T21:42:44;3.35;;;2.40;;
9597;SDS011;4837;50.890;4.724;2022-08-19T21:45:11;3.80;;;2.72;;
9597;SDS011;4837;50.890;4.724;2022-08-19T21:47:37;5.20;;;2.50;;
9597;SDS011;4837;50.890;4.724;2022-08-19T21:50:04;3.15;;;2.60;;
9597;SDS011;4837;50.890;4.724;2022-08-19T21:52:31;2.95;;;2.40;;
9597;SDS011;4837;50.890;4.724;2022-08-19T21:54:57;3.58;;;2.53;;
9597;SDS011;4837;50.890;4.724;2022-08-19T21:57:23;3.67;;;2.30;;
9597;SDS011;4837;50.890;4.724;2022-08-19T21:59:50;4.32;;;2.30;;
9597;SDS011;4837;50.890;4.724;2022-08-19T22:02:17;3.17;;;2.20;;
9597;SDS011;4837;50.890;4.724;2022-08-19T22:04:43;5.15;;;2.55;;
9597;SDS011;4837;50.890;4.724;2022-08-19T22:07:10;3.63;;;2.40;;
9597;SDS011;4837;50.890;4.724;2022-08-19T22:09:41;4.32;;;2.53;;
9597;SDS011;4837;50.890;4.724;2022-08-19T22:12:10;3.63;;;2.50;;
9597;SDS011;4837;50.890;4.724;2022-08-19T22:14:37;5.05;;;2.88;;
9597;SDS011;4837;50.890;4.724;2022-08-19T22:17:03;4.72;;;2.90;;
9597;SDS011;4837;50.890;4.724;2022-08-19T22:19:30;4.43;;;2.92;;
9597;SDS011;4837;50.890;4.724;2022-08-19T22:21:56;3.28;;;2.50;;
9597;SDS011;4837;50.890;4.724;2022-08-19T22:24:22;3.88;;;2.70;;
9597;SDS011;4837;50.890;4.724;2022-08-19T22:26:49;5.28;;;2.67;;
9597;SDS011;4837;50.890;4.724;2022-08-19T22:29:15;3.92;;;2.72;;
9597;SDS011;4837;50.890;4.724;2022-08-19T22:31:42;4.25;;;3.05;;
9597;SDS011;4837;50.890;4.724;2022-08-19T22:34:08;3.67;;;3.03;;
9597;SDS011;4837;50.890;4.724;2022-08-19T22:36:34;4.40;;;3.28;;
9597;SDS011;4837;50.890;4.724;2022-08-19T22:39:01;6.05;;;3.42;;
9597;SDS011;4837;50.890;4.724;2022-08-19T22:41:28;4.28;;;3.08;;
9597;SDS011;4837;50.890;4.724;2022-08-19T22:43:54;3.88;;;2.80;;
9597;SDS011;4837;50.890;4.724;2022-08-19T22:46:20;4.20;;;3.00;;
9597;SDS011;4837;50.890;4.724;2022-08-19T22:48:46;4.43;;;3.28;;
9597;SDS011;4837;50.890;4.724;2022-08-19T22:51:13;3.83;;;3.10;;
9597;SDS011;4837;50.890;4.724;2022-08-19T22:53:58;5.03;;;3.35;;
9597;SDS011;4837;50.890;4.724;2022-08-19T22:56:25;4.55;;;3.72;;
9597;SDS011;4837;50.890;4.724;2022-08-19T22:58:51;4.40;;;3.70;;
9597;SDS011;4837;50.890;4.724;2022-08-19T23:01:18;4.95;;;3.50;;
9597;SDS011;4837;50.890;4.724;2022-08-19T23:03:44;4.60;;;3.40;;
9597;SDS011;4837;50.890;4.724;2022-08-19T23:06:11;5.05;;;3.88;;
9597;SDS011;4837;50.890;4.724;2022-08-19T23:08:39;4.60;;;4.20;;
9597;SDS011;4837;50.890;4.724;2022-08-19T23:11:06;4.78;;;4.18;;
9597;SDS011;4837;50.890;4.724;2022-08-19T23:13:34;7.82;;;3.85;;
9597;SDS011;4837;50.890;4.724;2022-08-19T23:16:00;4.38;;;3.97;;
9597;SDS011;4837;50.890;4.724;2022-08-19T23:18:27;5.82;;;4.07;;
9597;SDS011;4837;50.890;4.724;2022-08-19T23:20:53;5.90;;;4.38;;
9597;SDS011;4837;50.890;4.724;2022-08-19T23:23:20;6.03;;;4.57;;
9597;SDS011;4837;50.890;4.724;2022-08-19T23:25:49;5.63;;;4.40;;
9597;SDS011;4837;50.890;4.724;2022-08-19T23:28:16;5.38;;;4.00;;
9597;SDS011;4837;50.890;4.724;2022-08-19T23:31:00;5.18;;;4.28;;
9597;SDS011;4837;50.890;4.724;2022-08-19T23:33:28;5.68;;;3.97;;
9597;SDS011;4837;50.890;4.724;2022-08-19T23:35:56;6.85;;;4.40;;
9597;SDS011;4837;50.890;4.724;2022-08-19T23:38:23;6.25;;;4.10;;
9597;SDS011;4837;50.890;4.724;2022-08-19T23:40:50;7.32;;;4.28;;
9597;SDS011;4837;50.890;4.724;2022-08-19T23:43:17;4.75;;;4.25;;
9597;SDS011;4837;50.890;4.724;2022-08-19T23:45:43;6.50;;;4.18;;
9597;SDS011;4837;50.890;4.724;2022-08-19T23:48:09;6.32;;;4.53;;
9597;SDS011;4837;50.890;4.724;2022-08-19T23:50:37;7.55;;;5.55;;
9597;SDS011;4837;50.890;4.724;2022-08-19T23:53:05;7.43;;;5.38;;
9597;SDS011;4837;50.890;4.724;2022-08-19T23:55:32;6.50;;;5.90;;
9597;SDS011;4837;50.890;4.724;2022-08-19T23:57:59;6.97;;;6.00;;
